createdAt,value
2024-04-22T00:01:46.051Z,2.72
2024-04-22T00:04:57.021Z,2.88
2024-04-22T00:07:29.293Z,3.15
2024-04-22T00:10:03.796Z,2.65
2024-04-22T00:12:33.312Z,3.45
2024-04-22T00:15:00.493Z,3.03
2024-04-22T00:17:28.055Z,2.63
2024-04-22T00:19:55.668Z,2.80
2024-04-22T00:22:22.967Z,3.17
2024-04-22T00:24:53.339Z,2.72
2024-04-22T00:27:20.729Z,2.78
2024-04-22T00:29:48.378Z,2.85
2024-04-22T00:32:15.654Z,2.75
2024-04-22T00:34:42.990Z,2.45
2024-04-22T00:37:10.141Z,2.45
2024-04-22T00:39:37.674Z,3.13
2024-04-22T00:42:05.277Z,2.50
2024-04-22T00:44:33.466Z,2.72
2024-04-22T00:47:00.485Z,3.35
2024-04-22T00:49:30.051Z,2.88
2024-04-22T00:51:57.433Z,2.88
2024-04-22T00:54:24.868Z,2.83
2024-04-22T00:56:53.097Z,3.13
2024-04-22T00:59:21.058Z,2.97
2024-04-22T01:01:48.654Z,2.88
2024-04-22T01:04:15.832Z,3.03
2024-04-22T01:06:43.400Z,3.03
2024-04-22T01:09:10.178Z,2.90
2024-04-22T01:11:37.816Z,2.70
2024-04-22T01:14:05.529Z,2.80
2024-04-22T01:16:33.295Z,3.15
2024-04-22T01:19:00.666Z,2.58
2024-04-22T01:21:30.796Z,2.78
2024-04-22T01:23:57.979Z,3.20
2024-04-22T01:26:26.589Z,3.30
2024-04-22T01:28:53.844Z,2.50
2024-04-22T01:31:21.619Z,2.58
2024-04-22T01:33:49.093Z,3.50
2024-04-22T01:36:15.983Z,2.65
2024-04-22T01:38:43.535Z,2.88
2024-04-22T01:41:10.439Z,2.90
2024-04-22T01:43:41.373Z,3.05
2024-04-22T01:46:09.159Z,3.08
2024-04-22T01:48:36.819Z,2.65
2024-04-22T01:51:03.862Z,2.80
2024-04-22T01:53:31.298Z,2.60
2024-04-22T01:55:58.785Z,3.25
2024-04-22T01:58:26.407Z,2.65
2024-04-22T02:00:53.639Z,2.95
2024-04-22T02:03:21.428Z,2.80
2024-04-22T02:05:49.111Z,3.42
2024-04-22T02:08:16.026Z,3.13
2024-04-22T02:10:43.645Z,2.80
2024-04-22T02:13:10.874Z,3.40
2024-04-22T02:15:38.318Z,3.17
2024-04-22T02:18:07.000Z,2.90
2024-04-22T02:20:34.455Z,3.05
2024-04-22T02:23:02.237Z,2.67
2024-04-22T02:25:29.742Z,3.03
2024-04-22T02:27:57.036Z,2.92
2024-04-22T02:30:24.876Z,2.95
2024-04-22T02:32:52.534Z,2.95
2024-04-22T02:35:19.487Z,3.53
2024-04-22T02:37:46.931Z,3.90
2024-04-22T02:40:14.080Z,3.38
2024-04-22T02:42:41.366Z,3.47
2024-04-22T02:45:10.145Z,4.28
2024-04-22T02:47:37.841Z,3.55
2024-04-22T02:50:06.293Z,3.92
2024-04-22T02:52:33.977Z,3.63
2024-04-22T02:55:01.160Z,3.72
2024-04-22T02:57:28.399Z,2.95
2024-04-22T02:59:55.727Z,3.35
2024-04-22T03:02:22.755Z,3.05
2024-04-22T03:04:50.700Z,3.20
2024-04-22T03:07:18.015Z,3.55
2024-04-22T03:09:46.063Z,3.50
2024-04-22T03:12:16.518Z,2.88
2024-04-22T03:14:44.052Z,3.30
2024-04-22T03:17:10.934Z,3.30
2024-04-22T03:19:38.452Z,2.97
2024-04-22T03:22:05.537Z,3.65
2024-04-22T03:24:32.470Z,3.88
2024-04-22T03:26:59.954Z,3.47
2024-04-22T03:29:26.810Z,3.50
2024-04-22T03:31:54.511Z,3.50
2024-04-22T03:34:21.390Z,3.05
2024-04-22T03:36:48.638Z,3.20
2024-04-22T03:39:16.291Z,3.90
2024-04-22T03:41:43.350Z,3.83
2024-04-22T03:44:13.922Z,3.30
2024-04-22T03:46:59.463Z,4.10
2024-04-22T03:49:45.307Z,3.78
2024-04-22T03:52:12.705Z,3.72
2024-04-22T03:54:39.958Z,3.65
2024-04-22T03:57:07.270Z,3.22
2024-04-22T03:59:34.444Z,3.40
2024-04-22T04:02:01.401Z,3.78
2024-04-22T04:04:28.679Z,3.85
2024-04-22T04:06:55.644Z,3.78
2024-04-22T04:09:24.371Z,3.53
2024-04-22T04:11:52.422Z,3.53
2024-04-22T04:14:20.504Z,3.45
2024-04-22T04:16:47.510Z,3.85
2024-04-22T04:19:15.159Z,4.15
2024-04-22T04:21:42.861Z,3.75
2024-04-22T04:24:09.976Z,3.85
2024-04-22T04:26:37.250Z,4.05
2024-04-22T04:29:06.463Z,4.03
2024-04-22T04:31:33.988Z,4.05
2024-04-22T04:34:00.809Z,3.38
2024-04-22T04:36:27.979Z,3.95
2024-04-22T04:38:55.246Z,3.72
2024-04-22T04:41:24.771Z,3.95
2024-04-22T04:43:51.880Z,3.80
2024-04-22T04:46:19.797Z,4.10
2024-04-22T04:48:47.007Z,4.00
2024-04-22T04:51:13.797Z,4.00
2024-04-22T04:53:40.856Z,3.60
2024-04-22T04:56:08.178Z,3.80
2024-04-22T04:58:35.518Z,4.47
2024-04-22T05:01:02.408Z,3.97
2024-04-22T05:03:29.175Z,3.70
2024-04-22T05:06:03.812Z,3.97
2024-04-22T05:08:31.477Z,3.78
2024-04-22T05:11:03.833Z,4.28
2024-04-22T05:13:31.432Z,4.10
2024-04-22T05:15:58.174Z,4.10
2024-04-22T05:18:24.919Z,4.32
2024-04-22T05:20:53.033Z,3.63
2024-04-22T05:23:20.104Z,4.57
2024-04-22T05:25:47.662Z,4.22
2024-04-22T05:28:16.643Z,3.97
2024-04-22T05:30:43.571Z,4.05
2024-04-22T05:33:30.734Z,4.35
2024-04-22T05:36:13.963Z,4.40
2024-04-22T05:38:44.481Z,4.43
2024-04-22T05:41:12.643Z,4.28
2024-04-22T05:43:39.732Z,3.67
2024-04-22T05:48:53.374Z,3.85
2024-04-22T05:51:20.174Z,3.97
2024-04-22T05:53:47.344Z,4.07
2024-04-22T05:56:14.168Z,4.07
2024-04-22T05:58:40.979Z,4.43
2024-04-22T06:01:07.781Z,4.05
2024-04-22T06:03:35.108Z,4.70
2024-04-22T06:06:01.953Z,4.22
2024-04-22T06:08:29.121Z,4.18
2024-04-22T06:10:56.377Z,4.03
2024-04-22T06:13:23.233Z,5.47
2024-04-22T06:15:50.434Z,4.30
2024-04-22T06:18:20.405Z,3.97
2024-04-22T06:20:47.399Z,4.22
2024-04-22T06:23:15.031Z,4.32
2024-04-22T06:25:49.362Z,3.78
2024-04-22T06:28:16.847Z,4.07
2024-04-22T06:30:45.887Z,4.47
2024-04-22T06:33:12.652Z,4.95
2024-04-22T06:35:39.804Z,3.97
2024-04-22T06:38:09.183Z,4.75
2024-04-22T06:40:37.959Z,4.18
2024-04-22T06:43:07.097Z,4.68
2024-04-22T06:45:33.939Z,4.38
2024-04-22T06:48:00.876Z,4.47
2024-04-22T06:50:28.038Z,4.07
2024-04-22T06:52:54.844Z,4.50
2024-04-22T06:55:25.474Z,4.90
2024-04-22T06:57:53.035Z,3.85
2024-04-22T07:00:22.019Z,4.30
2024-04-22T07:02:49.790Z,4.32
2024-04-22T07:05:16.790Z,3.42
2024-04-22T07:07:45.813Z,4.05
2024-04-22T07:10:16.171Z,3.85
2024-04-22T07:12:45.337Z,4.15
2024-04-22T07:15:14.538Z,4.32
2024-04-22T07:17:45.325Z,3.78
2024-04-22T07:20:13.393Z,3.83
2024-04-22T07:22:45.364Z,3.85
2024-04-22T07:25:12.818Z,3.35
2024-04-22T07:27:40.231Z,3.33
2024-04-22T07:30:07.739Z,3.42
2024-04-22T07:32:35.556Z,3.38
2024-04-22T07:35:02.938Z,3.42
2024-04-22T07:37:41.195Z,3.35
2024-04-22T07:40:20.515Z,3.30
2024-04-22T07:42:48.929Z,2.85
2024-04-22T07:45:18.049Z,3.58
2024-04-22T07:47:46.209Z,3.10
2024-04-22T07:50:13.668Z,3.00
2024-04-22T07:52:41.817Z,2.85
2024-04-22T07:55:12.078Z,2.83
2024-04-22T07:57:43.197Z,2.45
2024-04-22T08:00:13.125Z,3.30
2024-04-22T08:02:41.352Z,3.13
2024-04-22T08:05:09.435Z,2.67
2024-04-22T08:07:42.580Z,2.17
2024-04-22T08:10:20.731Z,2.35
2024-04-22T08:12:47.999Z,2.53
2024-04-22T08:15:16.155Z,2.05
2024-04-22T08:17:43.720Z,2.88
2024-04-22T08:20:12.126Z,2.55
2024-04-22T08:22:39.378Z,1.95
2024-04-22T08:25:06.828Z,2.38
2024-04-22T08:27:34.669Z,2.45
2024-04-22T08:30:03.621Z,2.67
2024-04-22T08:32:31.537Z,2.42
2024-04-22T08:34:59.182Z,2.45
2024-04-22T08:37:26.196Z,2.20
2024-04-22T08:39:53.735Z,2.42
2024-04-22T08:42:25.283Z,2.45
2024-04-22T08:44:54.574Z,2.40
2024-04-22T08:47:22.601Z,2.78
2024-04-22T08:49:50.849Z,2.42
2024-04-22T08:52:30.035Z,3.08
2024-04-22T08:55:00.291Z,2.70
2024-04-22T08:57:27.166Z,2.70
2024-04-22T08:59:54.609Z,2.40
2024-04-22T09:02:22.671Z,2.25
2024-04-22T09:04:54.226Z,2.60
2024-04-22T09:08:19.917Z,2.38
2024-04-22T09:11:39.615Z,2.83
2024-04-22T09:14:03.273Z,3.20
2024-04-22T09:16:30.523Z,2.45
2024-04-22T09:19:04.169Z,3.85
2024-04-22T09:21:37.468Z,2.83
2024-04-22T09:24:08.407Z,2.78
2024-04-22T09:26:36.720Z,2.40
2024-04-22T09:29:05.601Z,2.38
2024-04-22T09:31:39.112Z,2.15
2024-04-22T09:34:19.799Z,2.60
2024-04-22T09:36:48.625Z,2.45
2024-04-22T09:39:18.842Z,2.53
2024-04-22T09:41:48.657Z,2.92
2024-04-22T09:44:19.117Z,2.47
2024-04-22T09:46:52.604Z,2.40
2024-04-22T09:49:20.722Z,2.22
2024-04-22T09:51:50.124Z,2.50
2024-04-22T09:54:23.188Z,2.53
2024-04-22T09:56:53.564Z,2.95
2024-04-22T09:59:22.218Z,3.10
2024-04-22T10:01:49.822Z,2.55
2024-04-22T10:04:17.229Z,2.30
2024-04-22T10:06:44.996Z,2.42
2024-04-22T10:09:18.366Z,2.60
2024-04-22T10:11:46.134Z,3.15
2024-04-22T10:14:18.358Z,2.28
2024-04-22T10:16:58.586Z,2.50
2024-04-22T10:19:31.146Z,2.95
2024-04-22T10:22:07.306Z,2.03
2024-04-22T10:24:49.462Z,2.40
2024-04-22T10:27:18.600Z,3.65
2024-04-22T10:29:47.042Z,2.63
2024-04-22T10:32:14.208Z,2.83
2024-04-22T10:34:47.760Z,2.65
2024-04-22T10:37:15.308Z,2.63
2024-04-22T10:39:44.709Z,3.00
2024-04-22T10:42:12.561Z,2.83
2024-04-22T10:44:45.261Z,3.53
2024-04-22T10:47:13.098Z,2.63
2024-04-22T10:49:42.271Z,2.83
2024-04-22T10:52:10.040Z,2.42
2024-04-22T10:54:36.793Z,2.65
2024-04-22T10:57:04.538Z,2.45
2024-04-22T10:59:31.860Z,2.80
2024-04-22T11:02:00.729Z,2.63
2024-04-22T11:04:29.484Z,2.65
2024-04-22T11:06:56.272Z,2.35
2024-04-22T11:09:26.319Z,2.40
2024-04-22T11:11:54.573Z,2.55
2024-04-22T11:14:21.901Z,2.30
2024-04-22T11:17:00.777Z,2.63
2024-04-22T11:19:30.970Z,2.53
2024-04-22T11:22:00.067Z,2.15
2024-04-22T11:24:27.849Z,2.17
2024-04-22T11:26:56.043Z,1.90
2024-04-22T11:29:29.756Z,2.90
2024-04-22T11:32:00.270Z,2.00
2024-04-22T11:34:30.977Z,2.17
2024-04-22T11:36:58.648Z,1.80
2024-04-22T11:39:35.284Z,1.73
2024-04-22T11:42:06.335Z,5.90
2024-04-22T11:44:47.324Z,6.07
2024-04-22T11:47:16.623Z,4.28
2024-04-22T11:49:47.008Z,3.25
2024-04-22T11:52:14.936Z,2.53
2024-04-22T11:54:42.001Z,2.78
2024-04-22T11:57:09.045Z,2.80
2024-04-22T11:59:36.088Z,2.63
2024-04-22T12:02:03.754Z,2.47
2024-04-22T12:04:31.478Z,3.40
2024-04-22T12:06:58.514Z,2.40
2024-04-22T12:09:25.885Z,2.30
2024-04-22T12:14:41.323Z,2.17
2024-04-22T12:17:08.792Z,2.20
2024-04-22T12:19:36.299Z,2.50
2024-04-22T12:22:03.342Z,2.92
2024-04-22T12:24:30.357Z,2.28
2024-04-22T12:27:01.503Z,2.38
2024-04-22T12:29:30.536Z,2.38
2024-04-22T12:32:00.632Z,2.35
2024-04-22T12:34:31.108Z,2.25
2024-04-22T12:37:01.532Z,1.90
2024-04-22T12:39:28.852Z,2.03
2024-04-22T12:41:56.515Z,2.22
2024-04-22T12:44:30.527Z,2.40
2024-04-22T12:47:17.764Z,2.27
2024-04-22T12:50:07.683Z,2.22
2024-04-22T12:52:34.653Z,2.40
2024-04-22T12:55:05.652Z,2.10
2024-04-22T12:57:36.318Z,2.30
2024-04-22T13:00:10.098Z,2.28
2024-04-22T13:02:37.324Z,2.25
2024-04-22T13:05:05.078Z,2.40
2024-04-22T13:07:43.757Z,2.03
2024-04-22T13:10:16.013Z,2.53
2024-04-22T13:12:43.147Z,2.30
2024-04-22T13:15:10.087Z,2.30
2024-04-22T13:17:38.792Z,1.65
2024-04-22T13:20:06.786Z,2.25
2024-04-22T13:22:34.471Z,2.20
2024-04-22T13:25:05.147Z,2.53
2024-04-22T13:27:35.592Z,1.90
2024-04-22T13:30:09.515Z,2.30
2024-04-22T13:32:38.248Z,2.00
2024-04-22T13:35:06.350Z,2.20
2024-04-22T13:37:33.485Z,1.75
2024-04-22T13:40:02.269Z,2.05
2024-04-22T13:42:32.343Z,2.25
2024-04-22T13:45:02.882Z,2.33
2024-04-22T13:47:30.253Z,2.20
2024-04-22T13:49:57.390Z,2.38
2024-04-22T13:52:25.661Z,1.98
2024-04-22T13:54:52.720Z,3.15
2024-04-22T13:57:19.678Z,2.25
2024-04-22T13:59:46.827Z,2.13
2024-04-22T14:02:14.742Z,2.20
2024-04-22T14:04:45.842Z,2.10
2024-04-22T14:07:17.315Z,2.38
2024-04-22T14:09:45.414Z,2.05
2024-04-22T14:12:12.153Z,2.50
2024-04-22T14:14:40.739Z,2.28
2024-04-22T14:17:08.941Z,2.15
2024-04-22T14:19:36.417Z,2.58
2024-04-22T14:22:03.908Z,2.63
2024-04-22T14:24:31.358Z,2.05
2024-04-22T14:27:02.288Z,2.47
2024-04-22T14:29:37.814Z,2.25
2024-04-22T14:32:05.981Z,2.17
2024-04-22T14:34:45.503Z,2.58
2024-04-22T14:37:12.612Z,2.85
2024-04-22T14:39:40.024Z,2.85
2024-04-22T14:42:08.127Z,2.78
2024-04-22T14:44:41.163Z,2.63
2024-04-22T14:47:09.088Z,2.30
2024-04-22T14:49:36.545Z,2.70
2024-04-22T14:52:03.890Z,2.47
2024-04-22T14:54:31.339Z,2.38
2024-04-22T14:56:58.502Z,2.97
2024-04-22T14:59:25.497Z,2.97
2024-04-22T15:01:52.672Z,3.28
2024-04-22T15:04:19.777Z,3.13
2024-04-22T15:06:47.982Z,2.95
2024-04-22T15:09:15.103Z,3.00
2024-04-22T15:11:42.192Z,2.78
2024-04-22T15:14:09.064Z,2.90
2024-04-22T15:16:36.383Z,3.10
2024-04-22T15:19:03.483Z,2.70
2024-04-22T15:21:30.344Z,2.15
2024-04-22T15:23:57.259Z,2.45
2024-04-22T15:26:24.569Z,3.08
2024-04-22T15:28:51.716Z,2.50
2024-04-22T15:31:19.146Z,2.65
2024-04-22T15:33:47.062Z,2.80
2024-04-22T15:36:17.785Z,2.60
2024-04-22T15:38:45.020Z,2.78
2024-04-22T15:41:12.088Z,3.63
2024-04-22T15:43:44.001Z,2.65
2024-04-22T15:46:12.576Z,2.90
2024-04-22T15:48:39.880Z,2.65
2024-04-22T15:51:08.185Z,3.63
2024-04-22T15:53:35.478Z,4.85
2024-04-22T15:56:03.689Z,3.97
2024-04-22T15:58:31.310Z,2.90
2024-04-22T16:00:58.364Z,3.22
2024-04-22T16:03:29.220Z,3.15
2024-04-22T16:05:56.538Z,2.92
2024-04-22T16:08:23.606Z,2.90
2024-04-22T16:10:51.247Z,2.75
2024-04-22T16:13:20.246Z,2.60
2024-04-22T16:15:47.337Z,2.30
2024-04-22T16:18:14.261Z,2.20
2024-04-22T16:20:43.292Z,2.75
2024-04-22T16:23:10.675Z,2.38
2024-04-22T16:25:37.505Z,2.65
2024-04-22T16:28:04.936Z,2.15
2024-04-22T16:30:32.262Z,2.42
2024-04-22T16:32:59.300Z,2.30
2024-04-22T16:35:29.212Z,2.83
2024-04-22T16:37:56.500Z,2.80
2024-04-22T16:40:23.507Z,2.60
2024-04-22T16:42:51.096Z,2.78
2024-04-22T16:45:18.848Z,2.80
2024-04-22T16:47:45.812Z,3.00
2024-04-22T16:50:12.613Z,2.72
2024-04-22T16:52:39.612Z,3.03
2024-04-22T16:55:07.108Z,3.35
2024-04-22T16:57:34.780Z,3.13
2024-04-22T17:00:01.543Z,2.80
2024-04-22T17:02:28.860Z,2.85
2024-04-22T17:04:57.596Z,2.70
2024-04-22T17:07:25.151Z,2.83
2024-04-22T17:09:52.715Z,3.08
2024-04-22T17:12:19.877Z,3.10
2024-04-22T17:14:46.921Z,3.15
2024-04-22T17:17:14.481Z,2.50
2024-04-22T17:19:41.639Z,3.60
2024-04-22T17:22:08.663Z,3.30
2024-04-22T17:24:36.204Z,2.55
2024-04-22T17:27:03.166Z,3.10
2024-04-22T17:29:30.657Z,2.78
2024-04-22T17:31:57.781Z,3.55
2024-04-22T17:34:25.412Z,3.20
2024-04-22T17:36:53.843Z,2.67
2024-04-22T17:39:20.640Z,2.67
2024-04-22T17:41:48.417Z,2.90
2024-04-22T17:44:15.170Z,2.85
2024-04-22T17:46:42.072Z,2.45
2024-04-22T17:49:11.651Z,2.75
2024-04-22T17:51:39.046Z,3.38
2024-04-22T17:54:06.102Z,2.97
2024-04-22T17:56:33.640Z,3.17
2024-04-22T17:59:00.763Z,3.00
2024-04-22T18:01:27.714Z,2.80
2024-04-22T18:03:54.967Z,3.17
2024-04-22T18:06:23.244Z,3.42
2024-04-22T18:08:50.208Z,3.15
2024-04-22T18:11:18.480Z,3.25
2024-04-22T18:13:45.675Z,2.70
2024-04-22T18:16:12.559Z,3.22
2024-04-22T18:18:39.333Z,2.85
2024-04-22T18:21:06.788Z,3.35
2024-04-22T18:23:33.672Z,3.00
2024-04-22T18:26:06.363Z,2.75
2024-04-22T18:28:40.476Z,3.25
2024-04-22T18:31:07.543Z,3.28
2024-04-22T18:33:34.532Z,3.53
2024-04-22T18:36:01.483Z,3.58
2024-04-22T18:38:29.005Z,3.45
2024-04-22T18:40:55.928Z,3.47
2024-04-22T18:43:23.057Z,3.17
2024-04-22T18:45:50.224Z,3.17
2024-04-22T18:48:17.174Z,2.97
2024-04-22T18:50:44.179Z,2.88
2024-04-22T18:53:12.072Z,3.80
2024-04-22T18:55:39.733Z,3.10
2024-04-22T18:58:07.313Z,3.53
2024-04-22T19:00:35.314Z,2.63
2024-04-22T19:03:02.726Z,2.67
2024-04-22T19:05:29.868Z,2.50
2024-04-22T19:07:57.274Z,2.67
2024-04-22T19:10:24.307Z,2.55
2024-04-22T19:12:51.382Z,2.35
2024-04-22T19:15:18.234Z,2.45
2024-04-22T19:17:45.368Z,2.20
2024-04-22T19:20:13.375Z,2.40
2024-04-22T19:22:40.317Z,2.40
2024-04-22T19:25:08.933Z,2.30
2024-04-22T19:27:35.857Z,2.10
2024-04-22T19:30:03.764Z,3.17
2024-04-22T19:32:30.678Z,2.45
2024-04-22T19:34:57.656Z,2.42
2024-04-22T19:37:24.986Z,2.42
2024-04-22T19:39:52.124Z,2.50
2024-04-22T19:42:19.948Z,2.53
2024-04-22T19:44:56.989Z,2.42
2024-04-22T19:47:36.783Z,3.85
2024-04-22T19:50:14.676Z,2.95
2024-04-22T19:53:08.165Z,2.75
2024-04-22T19:55:40.228Z,3.05
2024-04-22T19:58:08.101Z,2.35
2024-04-22T20:00:37.834Z,2.42
2024-04-22T20:03:06.154Z,2.67
2024-04-22T20:05:36.410Z,2.80
2024-04-22T20:08:03.773Z,2.17
2024-04-22T20:10:30.893Z,2.00
2024-04-22T20:12:59.870Z,1.90
2024-04-22T20:15:40.855Z,2.10
2024-04-22T20:18:13.887Z,2.20
2024-04-22T20:20:40.842Z,2.47
2024-04-22T20:23:09.339Z,1.80
2024-04-22T20:25:36.400Z,1.88
2024-04-22T20:28:04.444Z,2.30
2024-04-22T20:30:31.999Z,2.15
2024-04-22T20:33:01.151Z,2.10
2024-04-22T20:35:28.430Z,1.95
2024-04-22T20:37:56.681Z,1.92
2024-04-22T20:40:25.025Z,2.20
2024-04-22T20:42:52.323Z,2.13
2024-04-22T20:45:20.432Z,2.50
2024-04-22T20:47:48.697Z,2.28
2024-04-22T20:50:15.745Z,2.03
2024-04-22T20:52:47.372Z,2.40
2024-04-22T20:55:15.443Z,1.92
2024-04-22T20:57:42.313Z,2.35
2024-04-22T21:00:09.435Z,2.15
2024-04-22T21:02:37.588Z,1.95
2024-04-22T21:05:04.742Z,2.30
2024-04-22T21:07:33.772Z,2.10
2024-04-22T21:10:01.220Z,2.42
2024-04-22T21:12:30.100Z,2.40
2024-04-22T21:15:00.214Z,2.10
2024-04-22T21:17:27.573Z,2.10
2024-04-22T21:19:57.142Z,1.98
2024-04-22T21:22:24.166Z,2.28
2024-04-22T21:24:54.185Z,2.20
2024-04-22T21:27:21.166Z,2.25
2024-04-22T21:29:49.249Z,2.05
2024-04-22T21:32:17.776Z,2.42
2024-04-22T21:34:45.423Z,2.38
2024-04-22T21:37:12.264Z,2.03
2024-04-22T21:39:40.174Z,2.50
2024-04-22T21:42:07.013Z,2.42
2024-04-22T21:44:33.895Z,2.72
2024-04-22T21:47:01.365Z,2.30
2024-04-22T21:49:30.191Z,2.53
2024-04-22T21:51:57.717Z,2.47
2024-04-22T21:54:24.794Z,2.20
2024-04-22T21:56:52.161Z,2.72
2024-04-22T21:59:56.922Z,2.63
2024-04-22T22:03:02.470Z,2.78
2024-04-22T22:06:08.426Z,2.78
2024-04-22T22:08:38.371Z,2.50
2024-04-22T22:11:06.557Z,2.58
2024-04-22T22:13:34.088Z,2.47
2024-04-22T22:16:02.003Z,2.35
2024-04-22T22:18:35.882Z,2.50
2024-04-22T22:21:02.965Z,2.78
2024-04-22T22:23:30.911Z,2.22
2024-04-22T22:26:01.808Z,2.97
2024-04-22T22:28:29.260Z,2.60
2024-04-22T22:30:58.951Z,2.28
2024-04-22T22:33:25.898Z,2.58
2024-04-22T22:35:55.152Z,2.67
2024-04-22T22:38:22.320Z,3.17
2024-04-22T22:40:49.806Z,2.60
2024-04-22T22:43:17.809Z,2.55
2024-04-22T22:45:45.655Z,2.83
2024-04-22T22:48:13.780Z,2.90
2024-04-22T22:50:41.237Z,2.70
2024-04-22T22:53:12.609Z,3.00
2024-04-22T22:55:39.886Z,2.75
2024-04-22T22:58:06.787Z,3.30
2024-04-22T23:00:34.292Z,2.85
2024-04-22T23:03:01.854Z,2.78
2024-04-22T23:05:28.850Z,3.40
2024-04-22T23:07:57.242Z,3.13
2024-04-22T23:10:24.426Z,3.03
2024-04-22T23:12:53.821Z,3.35
2024-04-22T23:15:20.729Z,3.53
2024-04-22T23:17:48.326Z,3.13
2024-04-22T23:20:20.584Z,3.33
2024-04-22T23:22:49.126Z,3.65
2024-04-22T23:25:17.701Z,3.10
2024-04-22T23:27:45.051Z,3.38
2024-04-22T23:30:13.500Z,3.10
2024-04-22T23:32:41.594Z,3.47
2024-04-22T23:35:09.714Z,3.03
2024-04-22T23:37:37.289Z,3.90
2024-04-22T23:40:05.330Z,3.90
2024-04-22T23:42:36.867Z,3.33
2024-04-22T23:45:03.972Z,3.63
2024-04-22T23:47:32.373Z,3.83
2024-04-22T23:49:59.358Z,3.33
2024-04-22T23:52:29.165Z,3.78
2024-04-22T23:54:56.102Z,3.50
2024-04-22T23:57:23.490Z,3.60
2024-04-22T23:59:50.402Z,3.90
